createdAt,value
2022-09-20T05:03:30.579Z,100085.00
2022-09-20T05:07:04.758Z,100092.40
2022-09-20T05:10:04.298Z,100090.60
2022-09-20T05:13:29.522Z,100090.60
2022-09-20T05:16:22.137Z,100089.40
2022-09-20T05:19:32.119Z,100092.40
2022-09-20T05:22:04.290Z,100100.00
2022-09-20T05:25:03.180Z,100106.00
2022-09-20T05:27:55.119Z,100110.40
2022-09-20T05:30:39.063Z,100115.20
2022-09-20T05:33:45.627Z,100117.00
2022-09-20T05:36:25.164Z,100120.60
2022-09-20T05:39:45.059Z,100115.80
2022-09-20T05:42:41.598Z,100118.00
2022-09-20T05:45:51.172Z,100121.60
2022-09-20T05:48:46.561Z,100125.60
2022-09-20T05:51:42.798Z,100123.60
2022-09-20T05:54:46.698Z,100125.80
2022-09-20T05:57:52.560Z,100124.00
2022-09-20T06:00:29.639Z,100124.60
2022-09-20T06:03:35.623Z,100121.60
2022-09-20T06:06:46.061Z,100129.60
2022-09-20T06:09:28.985Z,100122.40
2022-09-20T06:12:37.191Z,100129.20
2022-09-20T06:15:53.201Z,100129.00
2022-09-20T06:18:46.118Z,100129.60
2022-09-20T06:21:43.299Z,100131.80
2022-09-20T06:24:44.238Z,100129.60
2022-09-20T06:27:25.839Z,100132.00
2022-09-20T06:30:03.979Z,100132.20
2022-09-20T06:32:35.039Z,100134.60
2022-09-20T06:35:05.639Z,100135.80
2022-09-20T06:38:06.755Z,100134.60
2022-09-20T06:41:20.239Z,100136.00
2022-09-20T06:43:49.360Z,100129.00
2022-09-20T06:46:18.169Z,100133.20
2022-09-20T06:48:47.698Z,100127.60
2022-09-20T06:51:16.699Z,100128.80
2022-09-20T06:53:45.478Z,100136.40
2022-09-20T06:56:20.517Z,100140.00
2022-09-20T06:58:49.822Z,100139.60
2022-09-20T07:01:29.261Z,100144.20
2022-09-20T07:03:59.679Z,100145.40
2022-09-20T07:06:29.599Z,100146.00
2022-09-20T07:08:58.478Z,100150.80
2022-09-20T07:11:27.178Z,100149.40
2022-09-20T07:13:58.571Z,100153.20
2022-09-20T07:16:27.173Z,100158.60
2022-09-20T07:18:57.062Z,100160.80
2022-09-20T07:21:25.911Z,100163.00
2022-09-20T07:23:54.600Z,100163.00
2022-09-20T07:26:28.790Z,100164.60
2022-09-20T07:29:00.094Z,100168.40
2022-09-20T07:31:30.708Z,100165.60
2022-09-20T07:33:59.368Z,100166.20
2022-09-20T07:36:28.170Z,100170.60
2022-09-20T07:38:56.960Z,100171.40
2022-09-20T07:41:26.979Z,100173.00
2022-09-20T07:44:15.847Z,100180.40
2022-09-20T07:46:45.898Z,100181.00
2022-09-20T07:49:14.458Z,100185.80
2022-09-20T07:51:43.325Z,100193.80
2022-09-20T07:54:12.735Z,100188.00
2022-09-20T07:56:42.542Z,100191.80
2022-09-20T07:59:11.849Z,100192.00
2022-09-20T08:01:42.059Z,100188.60
2022-09-20T08:04:11.907Z,100190.60
2022-09-20T08:06:44.308Z,100196.60
2022-09-20T08:09:14.665Z,100197.60
2022-09-20T08:11:44.378Z,100199.20
2022-09-20T08:14:18.517Z,100200.00
2022-09-20T08:16:50.767Z,100196.20
2022-09-20T08:19:24.038Z,100197.20
2022-09-20T08:21:54.406Z,100197.20
2022-09-20T08:24:23.169Z,100195.20
2022-09-20T08:26:52.078Z,100192.60
2022-09-20T08:29:21.197Z,100197.20
2022-09-20T08:31:50.087Z,100195.60
2022-09-20T08:34:19.158Z,100197.20
2022-09-20T08:36:50.735Z,100199.60
2022-09-20T08:42:39.071Z,100189.20
2022-09-20T08:45:34.539Z,100197.40
2022-09-20T08:48:14.431Z,100203.00
2022-09-20T08:50:43.539Z,100209.60
2022-09-20T08:53:20.942Z,100210.00
2022-09-20T08:55:50.346Z,100209.80
2022-09-20T08:58:19.739Z,100207.60
2022-09-20T09:00:48.667Z,100210.60
2022-09-20T09:03:19.570Z,100214.00
2022-09-20T09:05:55.319Z,100219.00
2022-09-20T09:08:45.072Z,100219.80
2022-09-20T09:11:17.599Z,100221.60
2022-09-20T09:14:04.999Z,100223.80
2022-09-20T09:16:36.561Z,100221.20
2022-09-20T09:19:34.172Z,100226.60
2022-09-20T09:22:06.507Z,100231.80
2022-09-20T09:24:34.980Z,100235.80
2022-09-20T09:27:17.966Z,100240.00
2022-09-20T09:29:56.020Z,100239.40
2022-09-20T09:32:33.159Z,100240.80
2022-09-20T09:35:30.050Z,100242.80
2022-09-20T09:38:02.498Z,100242.40
2022-09-20T09:40:33.130Z,100238.80
2022-09-20T09:43:05.218Z,100243.20
2022-09-20T09:45:39.464Z,100247.80
2022-09-20T09:48:29.514Z,100244.40
2022-09-20T09:51:17.938Z,100243.60
2022-09-20T09:53:52.066Z,100245.20
2022-09-20T09:57:06.839Z,100246.00
2022-09-20T10:00:20.811Z,100246.40
2022-09-20T10:03:15.179Z,100247.00
2022-09-20T10:06:12.318Z,100244.40
2022-09-20T10:09:13.490Z,100250.20
2022-09-20T10:12:08.819Z,100250.40
2022-09-20T10:14:55.819Z,100248.20
2022-09-20T10:17:49.586Z,100244.40
2022-09-20T10:20:28.517Z,100244.00
2022-09-20T10:23:59.013Z,100245.40
2022-09-20T10:27:05.719Z,100244.80
2022-09-20T10:30:15.156Z,100249.80
2022-09-20T10:33:18.159Z,100249.00
2022-09-20T10:36:18.900Z,100247.00
2022-09-20T10:39:28.068Z,100243.40
2022-09-20T10:42:34.184Z,100245.00
2022-09-20T10:45:55.898Z,100241.80
2022-09-20T10:48:30.458Z,100242.20
2022-09-20T10:51:15.140Z,100241.00
2022-09-20T10:54:34.078Z,100240.60
2022-09-20T10:57:44.405Z,100242.60
2022-09-20T11:00:23.117Z,100242.40
2022-09-20T11:03:26.759Z,100241.40
2022-09-20T11:06:15.718Z,100250.80
2022-09-20T11:08:51.198Z,100250.20
2022-09-20T11:11:42.178Z,100251.20
2022-09-20T11:14:23.876Z,100250.20
2022-09-20T11:17:32.259Z,100257.40
2022-09-20T11:20:21.459Z,100246.80
2022-09-20T11:23:09.398Z,100247.20
2022-09-20T11:25:46.478Z,100243.40
2022-09-20T11:28:41.996Z,100250.20
2022-09-20T11:31:22.575Z,100248.20
2022-09-20T11:34:28.719Z,100249.20
2022-09-20T11:37:04.085Z,100248.60
2022-09-20T11:39:44.641Z,100252.20
2022-09-20T11:42:24.479Z,100261.00
2022-09-20T11:44:57.708Z,100261.80
2022-09-20T11:47:55.727Z,100262.00
2022-09-20T11:51:09.471Z,100262.80
2022-09-20T11:54:15.860Z,100257.40
2022-09-20T11:56:52.982Z,100262.20
2022-09-20T11:59:37.706Z,100259.60
2022-09-20T12:02:42.866Z,100254.20
2022-09-20T12:05:58.437Z,100253.60
2022-09-20T12:08:38.339Z,100269.40
2022-09-20T12:11:15.162Z,100269.40
2022-09-20T12:13:59.620Z,100267.40
2022-09-20T12:16:50.978Z,100265.60
2022-09-20T12:19:36.829Z,100266.80
2022-09-20T12:22:05.916Z,100265.40
2022-09-20T12:24:44.555Z,100272.20
2022-09-20T12:27:29.857Z,100267.00
2022-09-20T12:30:17.467Z,100261.60
2022-09-20T12:32:56.838Z,100264.00
2022-09-20T12:35:39.407Z,100262.20
2022-09-20T12:38:38.079Z,100262.20
2022-09-20T12:41:27.496Z,100255.20
2022-09-20T12:44:03.518Z,100260.20
2022-09-20T12:46:58.928Z,100262.00
2022-09-20T12:49:49.021Z,100270.40
2022-09-20T12:52:48.311Z,100275.80
2022-09-20T12:55:41.898Z,100271.40
2022-09-20T12:58:14.807Z,100272.40
2022-09-20T13:00:58.246Z,100278.00
2022-09-20T13:03:48.780Z,100273.20
2022-09-20T13:06:25.486Z,100280.20
2022-09-20T13:09:09.397Z,100280.00
2022-09-20T13:12:07.598Z,100280.80
2022-09-20T13:14:41.259Z,100286.80
2022-09-20T13:17:14.221Z,100287.20
2022-09-20T13:19:50.654Z,100285.40
2022-09-20T13:22:33.498Z,100286.00
2022-09-20T13:25:07.939Z,100284.80
2022-09-20T13:27:54.219Z,100286.80
2022-09-20T13:30:28.724Z,100288.40
2022-09-20T13:32:59.198Z,100284.80
2022-09-20T13:35:32.172Z,100286.00
2022-09-20T13:38:08.077Z,100283.60
2022-09-20T13:40:42.718Z,100279.40
2022-09-20T13:43:39.618Z,100284.80
2022-09-20T13:46:17.546Z,100288.60
2022-09-20T13:49:21.202Z,100284.00
2022-09-20T13:51:53.426Z,100286.80
2022-09-20T13:54:33.305Z,100287.40
2022-09-20T13:57:06.918Z,100282.00
2022-09-20T13:59:45.770Z,100276.60
2022-09-20T14:02:27.520Z,100272.80
2022-09-20T14:05:04.080Z,100272.00
2022-09-20T14:07:36.821Z,100272.60
2022-09-20T14:10:37.500Z,100271.60
2022-09-20T14:13:12.040Z,100268.00
2022-09-20T14:15:47.200Z,100271.60
2022-09-20T14:18:22.798Z,100266.00
2022-09-20T14:20:53.638Z,100271.80
2022-09-20T14:23:25.920Z,100270.00
2022-09-20T14:26:17.042Z,100269.20
2022-09-20T14:28:46.556Z,100266.60
2022-09-20T14:31:26.230Z,100264.60
2022-09-20T14:34:02.477Z,100258.20
2022-09-20T14:36:31.958Z,100265.60
2022-09-20T14:39:05.938Z,100265.20
2022-09-20T14:41:39.280Z,100264.20
2022-09-20T14:44:32.740Z,100265.20
2022-09-20T14:47:16.240Z,100265.00
2022-09-20T14:49:45.299Z,100267.40
2022-09-20T14:52:46.019Z,100267.20
2022-09-20T14:55:15.001Z,100273.20
2022-09-20T14:57:44.619Z,100276.80
2022-09-20T15:00:17.363Z,100274.20
2022-09-20T15:02:47.662Z,100274.60
2022-09-20T15:05:27.278Z,100279.00
2022-09-20T15:07:58.139Z,100277.80
2022-09-20T15:10:27.707Z,100275.80
2022-09-20T15:12:57.024Z,100276.80
2022-09-20T15:15:25.983Z,100282.00
2022-09-20T15:17:55.179Z,100284.00
2022-09-20T15:20:24.706Z,100289.80
2022-09-20T15:22:53.418Z,100291.40
2022-09-20T15:25:22.572Z,100284.80
2022-09-20T15:27:52.105Z,100284.20
2022-09-20T15:30:21.400Z,100287.60
2022-09-20T15:32:50.178Z,100284.00
2022-09-20T15:35:18.958Z,100283.60
2022-09-20T15:37:47.738Z,100291.00
2022-09-20T15:40:17.180Z,100286.40
2022-09-20T15:42:46.859Z,100290.40
2022-09-20T15:45:15.647Z,100307.80
2022-09-20T15:47:44.830Z,100316.80
2022-09-20T15:50:14.458Z,100316.20
2022-09-20T15:52:43.258Z,100313.20
2022-09-20T15:55:12.760Z,100312.40
2022-09-20T15:57:42.299Z,100318.20
2022-09-20T16:00:11.898Z,100314.80
2022-09-20T16:02:40.858Z,100320.00
2022-09-20T16:05:11.360Z,100314.20
2022-09-20T16:07:40.179Z,100316.60
2022-09-20T16:10:09.561Z,100326.00
2022-09-20T16:12:38.359Z,100325.80
2022-09-20T16:15:08.746Z,100336.60
2022-09-20T16:17:56.413Z,100340.80
2022-09-20T16:20:25.458Z,100339.40
2022-09-20T16:22:54.426Z,100344.20
2022-09-20T16:25:23.490Z,100346.20
2022-09-20T16:27:52.405Z,100352.80
2022-09-20T16:30:21.221Z,100354.60
2022-09-20T16:32:51.058Z,100363.80
2022-09-20T16:35:19.901Z,100368.00
2022-09-20T16:37:48.678Z,100372.20
2022-09-20T16:40:17.446Z,100379.00
2022-09-20T16:42:52.088Z,100383.20
2022-09-20T16:45:21.758Z,100388.20
2022-09-20T16:47:50.479Z,100389.20
2022-09-20T16:50:19.680Z,100399.00
2022-09-20T16:52:48.505Z,100404.40
2022-09-20T16:55:18.501Z,100409.60
2022-09-20T16:57:53.119Z,100417.40
2022-09-20T17:00:22.379Z,100421.40
2022-09-20T17:02:52.020Z,100421.00
2022-09-20T17:05:20.917Z,100422.00
2022-09-20T17:07:49.819Z,100433.80
2022-09-20T17:10:18.619Z,100437.40
2022-09-20T17:12:48.426Z,100440.80
2022-09-20T17:15:17.220Z,100448.60
2022-09-20T17:17:46.618Z,100452.00
2022-09-20T17:20:15.698Z,100458.40
2022-09-20T17:22:44.398Z,100454.60
2022-09-20T17:25:13.659Z,100453.40
2022-09-20T17:27:42.499Z,100452.20
2022-09-20T17:30:12.318Z,100460.40
2022-09-20T17:32:48.659Z,100461.20
2022-09-20T17:35:18.886Z,100461.40
2022-09-20T17:37:47.979Z,100460.80
2022-09-20T17:40:16.864Z,100459.80
2022-09-20T17:42:47.110Z,100464.20
2022-09-20T17:45:17.040Z,100472.60
2022-09-20T17:47:46.221Z,100482.80
2022-09-20T17:50:15.745Z,100484.20
2022-09-20T17:52:46.561Z,100483.80
2022-09-20T17:55:15.439Z,100486.20
2022-09-20T17:57:44.238Z,100488.40
2022-09-20T18:00:14.078Z,100482.40
2022-09-20T18:02:42.996Z,100485.40
2022-09-20T18:05:11.826Z,100490.40
2022-09-20T18:07:40.711Z,100492.60
2022-09-20T18:10:15.878Z,100498.40
2022-09-20T18:12:44.740Z,100502.40
2022-09-20T18:15:13.540Z,100508.40
2022-09-20T18:17:42.511Z,100506.60
2022-09-20T18:20:11.580Z,100505.60
2022-09-20T18:22:40.418Z,100506.80
2022-09-20T18:25:09.939Z,100511.60
2022-09-20T18:27:39.240Z,100514.00
2022-09-20T18:30:09.309Z,100519.60
2022-09-20T18:32:38.142Z,100520.80
2022-09-20T18:35:07.639Z,100525.40
2022-09-20T18:37:38.258Z,100526.60
2022-09-20T18:40:08.316Z,100525.80
2022-09-20T18:42:37.079Z,100529.60
2022-09-20T18:45:06.961Z,100530.80
2022-09-20T18:47:36.530Z,100539.20
2022-09-20T18:50:11.118Z,100536.80
2022-09-20T18:52:39.904Z,100537.40
2022-09-20T18:55:09.579Z,100537.00
2022-09-20T18:57:38.719Z,100540.80
2022-09-20T19:00:09.695Z,100544.60
2022-09-20T19:03:10.146Z,100544.80
2022-09-20T19:05:52.479Z,100542.80
2022-09-20T19:08:55.579Z,100544.80
2022-09-20T19:11:35.751Z,100547.80
2022-09-20T19:14:15.381Z,100548.20
2022-09-20T19:16:51.140Z,100550.80
2022-09-20T19:20:12.466Z,100555.20
2022-09-20T19:22:58.260Z,100555.00
2022-09-20T19:25:43.918Z,100562.00
2022-09-20T19:28:15.597Z,100562.20
2022-09-20T19:30:45.885Z,100561.40
2022-09-20T19:33:19.680Z,100560.00
2022-09-20T19:35:52.639Z,100564.40
2022-09-20T19:38:52.058Z,100562.60
2022-09-20T19:41:45.399Z,100570.80
2022-09-20T19:45:04.759Z,100573.60
2022-09-20T19:47:58.111Z,100580.60
2022-09-20T19:50:40.519Z,100581.40
2022-09-20T19:53:11.859Z,100579.60
2022-09-20T19:55:46.790Z,100587.00
2022-09-20T19:58:16.438Z,100589.20
2022-09-20T20:00:47.739Z,100591.80
2022-09-20T20:03:17.507Z,100596.00
2022-09-20T20:05:57.643Z,100596.40
2022-09-20T20:08:56.820Z,100596.00
2022-09-20T20:12:16.238Z,100598.80
2022-09-20T20:15:25.248Z,100599.60
2022-09-20T20:18:40.733Z,100604.20
2022-09-20T20:21:24.998Z,100602.40
2022-09-20T20:24:12.505Z,100603.40
2022-09-20T20:26:41.299Z,100614.60
2022-09-20T20:29:12.327Z,100613.80
2022-09-20T20:31:41.044Z,100615.80
2022-09-20T20:34:09.906Z,100618.80
2022-09-20T20:36:39.559Z,100618.00
2022-09-20T20:39:08.158Z,100616.60
2022-09-20T20:41:37.399Z,100619.40
2022-09-20T20:44:06.638Z,100621.60
2022-09-20T20:46:36.378Z,100623.40
2022-09-20T20:49:06.021Z,100621.00
2022-09-20T20:51:34.791Z,100626.60
2022-09-20T20:54:05.239Z,100628.40
2022-09-20T20:56:34.338Z,100635.00
2022-09-20T20:59:05.938Z,100631.80
2022-09-20T21:01:38.623Z,100630.60
2022-09-20T21:04:09.400Z,100632.20
2022-09-20T21:06:41.039Z,100632.40
2022-09-20T21:09:11.829Z,100636.40
2022-09-20T21:11:45.119Z,100636.20
2022-09-20T21:14:13.778Z,100634.00
2022-09-20T21:16:44.284Z,100637.00
2022-09-20T21:19:16.075Z,100636.40
2022-09-20T21:21:48.149Z,100640.80
2022-09-20T21:24:17.588Z,100639.40
2022-09-20T21:26:47.377Z,100645.20
2022-09-20T21:29:17.160Z,100643.80
2022-09-20T21:31:47.758Z,100644.00
2022-09-20T21:34:17.198Z,100647.00
2022-09-20T21:36:46.079Z,100651.40
2022-09-20T21:39:14.680Z,100651.80
2022-09-20T21:41:43.878Z,100655.00
2022-09-20T21:44:12.664Z,100655.40
2022-09-20T21:46:42.838Z,100658.20
2022-09-20T21:49:13.398Z,100655.00
2022-09-20T21:51:44.358Z,100658.00
2022-09-20T21:54:13.182Z,100654.80
2022-09-20T21:56:42.038Z,100656.00
